Time;durP1;ratioP1;P1;durP2;ratioP2;P2;SDS_P1;SDS_P2;PMS_P1;PMS_P2;Temp;Humidity;BMP_temperature;BMP_pressure;BME280_temperature;BME280_humidity;BME280_pressure;Samples;Min_cycle;Max_cycle;Signal;HPM_P1;HPM_P2
2021/01/17 00:00:18;;;;;;;0.20;0.10;;;;;;;0.14;100.00;100415.56;5055262;28;20467;-50
2021/01/17 00:02:45;;;;;;;0.20;0.20;;;;;;;0.17;100.00;100407.75;5055095;28;20446;-50
2021/01/17 00:05:15;;;;;;;0.20;0.10;;;;;;;0.11;100.00;100402.44;5055255;28;20474;-50
2021/01/17 00:07:41;;;;;;;0.20;0.10;;;;;;;0.10;100.00;100403.28;5028953;28;20450;-50
2021/01/17 00:10:11;;;;;;;0.20;0.10;;;;;;;0.34;100.00;100401.91;5054863;28;20474;-51
2021/01/17 00:12:38;;;;;;;0.20;0.10;;;;;;;0.13;100.00;100399.84;5054955;28;20447;-50
2021/01/17 00:15:10;;;;;;;0.20;0.10;;;;;;;-0.07;100.00;100392.56;5055137;28;20497;-50
2021/01/17 00:17:37;;;;;;;0.20;0.10;;;;;;;-0.22;100.00;100397.56;5055017;28;20450;-50
2021/01/17 00:20:23;;;;;;;0.20;0.10;;;;;;;0.06;100.00;100392.78;5042027;28;20479;-50
2021/01/17 00:22:53;;;;;;;0.20;0.10;;;;;;;0.03;100.00;100387.50;5054135;28;20447;-50
2021/01/17 00:25:21;;;;;;;0.20;0.10;;;;;;;0.07;100.00;100399.75;5054664;28;20439;-50
2021/01/17 00:27:52;;;;;;;0.20;0.10;;;;;;;0.01;100.00;100387.50;5050265;28;20862;-50
2021/01/17 00:30:24;;;;;;;0.20;0.10;;;;;;;-0.02;100.00;100384.81;5028148;28;20554;-50
2021/01/17 00:32:53;;;;;;;0.20;0.10;;;;;;;-0.03;100.00;100383.03;5054629;28;20465;-50
2021/01/17 00:35:21;;;;;;;0.20;0.10;;;;;;;-0.09;100.00;100372.53;5053018;28;20483;-50
2021/01/17 00:37:55;;;;;;;0.20;0.10;;;;;;;0.06;100.00;100369.25;5054615;28;20451;-50
2021/01/17 00:40:23;;;;;;;0.20;0.10;;;;;;;0.21;100.00;100365.13;5054744;28;20463;-50
2021/01/17 00:42:51;;;;;;;0.20;0.10;;;;;;;0.03;100.00;100358.75;5053878;28;20461;-50
2021/01/17 00:45:18;;;;;;;0.20;0.10;;;;;;;-0.16;100.00;100355.84;5054051;28;20447;-50
2021/01/17 00:47:45;;;;;;;0.20;0.10;;;;;;;-0.07;100.00;100356.00;5054146;28;20452;-50
2021/01/17 00:50:17;;;;;;;0.20;0.10;;;;;;;0.02;100.00;100354.41;5047649;28;20471;-50
2021/01/17 00:52:44;;;;;;;0.20;0.10;;;;;;;0.07;100.00;100347.50;5054112;28;20463;-50
2021/01/17 00:55:11;;;;;;;0.20;0.10;;;;;;;-0.12;100.00;100344.63;5053893;28;20521;-50
2021/01/17 00:57:38;;;;;;;0.20;0.10;;;;;;;0.00;100.00;100349.16;5053537;28;20454;-49
2021/01/17 01:00:12;;;;;;;0.20;0.10;;;;;;;-0.15;100.00;100341.06;5054203;28;20555;-50
2021/01/17 01:02:41;;;;;;;0.20;0.10;;;;;;;-0.02;100.00;100343.88;5053883;28;20512;-50
2021/01/17 01:05:09;;;;;;;0.20;0.10;;;;;;;0.35;100.00;100338.31;5053919;28;20442;-51
2021/01/17 01:07:36;;;;;;;0.20;0.10;;;;;;;0.37;100.00;100327.00;5058561;28;20455;-50
2021/01/17 01:10:10;;;;;;;0.20;0.10;;;;;;;0.43;100.00;100326.22;5049126;28;20471;-51
2021/01/17 01:12:36;;;;;;;0.20;0.10;;;;;;;0.42;100.00;100311.41;5029475;28;20455;-50
2021/01/17 01:15:05;;;;;;;0.20;0.10;;;;;;;0.13;100.00;100310.97;5053760;28;20534;-51
2021/01/17 01:17:31;;;;;;;0.20;0.10;;;;;;;0.04;100.00;100303.91;5053773;28;20458;-50
2021/01/17 01:19:57;;;;;;;0.20;0.20;;;;;;;-0.17;100.00;100307.09;5040411;28;20479;-50
2021/01/17 01:22:23;;;;;;;0.20;0.10;;;;;;;-0.16;100.00;100310.56;5052683;28;20455;-50
2021/01/17 01:24:49;;;;;;;0.20;0.10;;;;;;;-0.21;100.00;100302.69;5052915;28;20536;-50
2021/01/17 01:27:15;;;;;;;0.20;0.10;;;;;;;-0.20;100.00;100298.34;5047799;28;20459;-50
2021/01/17 01:29:42;;;;;;;0.20;0.10;;;;;;;0.14;100.00;100292.75;5052450;28;20536;-50
2021/01/17 01:32:08;;;;;;;0.20;0.10;;;;;;;0.14;100.00;100290.13;5052581;28;21010;-50
2021/01/17 01:34:35;;;;;;;0.20;0.10;;;;;;;-0.06;100.00;100286.34;5052088;28;20490;-50
2021/01/17 01:37:01;;;;;;;0.20;0.10;;;;;;;0.00;100.00;100291.69;5052680;28;20450;-50
2021/01/17 01:39:27;;;;;;;0.70;0.70;;;;;;;-0.21;100.00;100297.47;5052131;28;20471;-50
2021/01/17 01:41:53;;;;;;;0.20;0.10;;;;;;;-0.15;100.00;100294.91;5053003;28;20454;-50
2021/01/17 01:44:20;;;;;;;0.20;0.10;;;;;;;0.02;100.00;100296.91;5052169;28;20932;-50
2021/01/17 01:46:46;;;;;;;0.20;0.10;;;;;;;-0.06;100.00;100283.75;5052508;28;20451;-50
2021/01/17 01:49:13;;;;;;;0.20;0.10;;;;;;;-0.08;100.00;100294.16;5044103;28;20471;-50
2021/01/17 01:51:40;;;;;;;0.40;0.40;;;;;;;-0.43;100.00;100287.53;5052614;28;20458;-50
2021/01/17 01:54:08;;;;;;;0.20;0.10;;;;;;;-0.42;100.00;100290.16;5050085;28;20858;-50
2021/01/17 01:56:35;;;;;;;0.20;0.10;;;;;;;-0.49;100.00;100284.84;5051959;28;20458;-50
2021/01/17 01:59:03;;;;;;;0.20;0.10;;;;;;;-0.28;100.00;100281.66;5051862;28;20467;-49
2021/01/17 02:01:30;;;;;;;0.20;0.20;;;;;;;-0.04;100.00;100277.66;5052460;28;20442;-50
2021/01/17 02:03:56;;;;;;;0.20;0.10;;;;;;;0.02;100.00;100278.63;5050914;28;20446;-50
2021/01/17 02:06:24;;;;;;;0.20;0.10;;;;;;;-0.01;100.00;100277.72;5052113;28;20459;-50
2021/01/17 02:09:20;;;;;;;0.20;0.10;;;;;;;-0.05;100.00;100275.03;5051640;28;20501;-50
2021/01/17 02:12:11;;;;;;;0.20;0.20;;;;;;;-0.35;100.00;100272.88;5052089;28;20451;-50
2021/01/17 02:14:40;;;;;;;0.20;0.10;;;;;;;-0.07;100.00;100279.38;5030005;28;20490;-50
2021/01/17 02:17:12;;;;;;;0.20;0.10;;;;;;;-0.51;100.00;100271.75;5052057;28;20502;-49
2021/01/17 02:20:01;;;;;;;0.40;0.40;;;;;;;-0.41;100.00;100275.38;5016570;28;672053;-50
2021/01/17 02:22:30;;;;;;;0.20;0.10;;;;;;;-0.37;100.00;100285.03;5030199;28;20922;-50
2021/01/17 02:25:06;;;;;;;0.87;0.87;;;;;;;-0.54;100.00;100290.00;5053376;28;20447;-50
2021/01/17 02:27:32;;;;;;;0.20;0.10;;;;;;;-0.57;100.00;100292.53;5048160;28;20455;-50
2021/01/17 02:30:03;;;;;;;0.20;0.10;;;;;;;-0.44;100.00;100291.88;5053384;28;21060;-50
2021/01/17 02:32:33;;;;;;;0.20;0.10;;;;;;;-0.53;100.00;100290.88;5053397;28;20447;-50
2021/01/17 02:35:00;;;;;;;0.20;0.10;;;;;;;-0.49;100.00;100287.44;5053155;28;20555;-50
2021/01/17 02:37:29;;;;;;;0.20;0.10;;;;;;;-0.47;100.00;100296.19;5053483;28;21006;-50
2021/01/17 02:40:26;;;;;;;0.20;0.10;;;;;;;-0.57;100.00;100294.25;5053486;28;20471;-51
2021/01/17 02:42:53;;;;;;;0.20;0.10;;;;;;;-0.30;100.00;100289.47;5053360;28;20871;-50
2021/01/17 02:45:19;;;;;;;0.20;0.10;;;;;;;-0.45;100.00;100294.47;5053490;28;20477;-49
2021/01/17 02:47:45;;;;;;;0.20;0.10;;;;;;;-0.52;100.00;100284.78;5052564;28;20505;-50
2021/01/17 02:50:12;;;;;;;0.20;0.10;;;;;;;-0.57;100.00;100281.22;5045686;28;20467;-50
2021/01/17 02:52:44;;;;;;;0.20;0.10;;;;;;;-0.41;100.00;100275.38;5052835;28;20473;-50
2021/01/17 02:55:10;;;;;;;0.20;0.10;;;;;;;-0.49;100.00;100274.41;5052575;28;20552;-50
2021/01/17 02:57:39;;;;;;;0.20;0.10;;;;;;;-0.52;100.00;100283.06;5052376;28;20455;-50
2021/01/17 03:00:08;;;;;;;0.20;0.10;;;;;;;-0.54;100.00;100274.34;5052620;28;20474;-50
2021/01/17 03:02:41;;;;;;;0.20;0.10;;;;;;;-0.63;100.00;100276.78;5051357;28;20454;-49
2021/01/17 03:05:13;;;;;;;0.20;0.10;;;;;;;-0.42;100.00;100269.28;5052762;28;20439;-50
2021/01/17 03:07:40;;;;;;;0.20;0.10;;;;;;;-0.65;100.00;100257.63;5056403;28;20465;-50
2021/01/17 03:10:09;;;;;;;0.30;0.10;;;;;;;-0.57;100.00;100262.94;5056035;28;20616;-50
2021/01/17 03:12:36;;;;;;;0.20;0.10;;;;;;;-0.42;100.00;100251.00;5056189;28;20602;-50
2021/01/17 03:15:04;;;;;;;0.20;0.10;;;;;;;-0.36;100.00;100247.63;5056064;28;20482;-50
2021/01/17 03:17:31;;;;;;;0.20;0.10;;;;;;;-0.34;100.00;100251.13;5070217;28;20438;-50
2021/01/17 03:19:57;;;;;;;0.20;0.10;;;;;;;-0.46;100.00;100259.66;5048106;28;20525;-50
2021/01/17 03:22:24;;;;;;;0.20;0.10;;;;;;;-0.56;100.00;100264.69;5057036;28;20928;-50
2021/01/17 03:24:50;;;;;;;0.20;0.10;;;;;;;-0.56;100.00;100262.09;5054872;28;20492;-50
2021/01/17 03:27:17;;;;;;;0.50;0.50;;;;;;;-0.20;100.00;100264.38;5050942;28;20981;-50
2021/01/17 03:29:43;;;;;;;0.20;0.10;;;;;;;-0.29;100.00;100262.50;5055310;28;20471;-50
2021/01/17 03:32:10;;;;;;;0.20;0.10;;;;;;;-0.26;100.00;100259.97;5055635;28;20450;-50
2021/01/17 03:34:36;;;;;;;0.20;0.10;;;;;;;-0.36;100.00;100264.16;5055186;28;20565;-50
2021/01/17 03:37:05;;;;;;;0.20;0.10;;;;;;;-0.33;100.00;100263.31;5055669;28;20469;-50
2021/01/17 03:39:31;;;;;;;0.20;0.10;;;;;;;-0.40;100.00;100262.38;5055376;28;20478;-50
2021/01/17 03:41:57;;;;;;;0.20;0.10;;;;;;;-0.31;100.00;100264.22;5055442;28;20454;-50
2021/01/17 03:44:23;;;;;;;0.20;0.10;;;;;;;-0.08;100.00;100269.78;5055192;28;20481;-50
2021/01/17 03:46:50;;;;;;;0.30;0.10;;;;;;;-0.11;100.00;100273.25;5055192;28;20504;-50
2021/01/17 03:49:16;;;;;;;0.20;0.10;;;;;;;-0.08;100.00;100272.41;5044816;28;20492;-50
2021/01/17 03:51:42;;;;;;;0.30;0.30;;;;;;;-0.16;100.00;100269.66;5029682;28;20474;-50
2021/01/17 03:54:08;;;;;;;0.20;0.10;;;;;;;-0.38;100.00;100270.22;5049487;28;20856;-50
2021/01/17 03:56:34;;;;;;;0.20;0.20;;;;;;;-0.27;100.00;100270.34;5054852;28;20450;-50
2021/01/17 03:59:01;;;;;;;0.20;0.10;;;;;;;-0.50;100.00;100255.25;5054554;28;20897;-50
2021/01/17 04:01:27;;;;;;;0.20;0.10;;;;;;;-0.56;100.00;100262.97;5054872;28;20447;-51
2021/01/17 04:03:57;;;;;;;0.20;0.10;;;;;;;-0.59;100.00;100265.53;5054730;28;20459;-49
2021/01/17 04:06:24;;;;;;;0.20;0.10;;;;;;;-0.54;100.00;100270.84;5055001;28;20454;-50
2021/01/17 04:08:51;;;;;;;0.20;0.10;;;;;;;-0.59;100.00;100265.53;5054648;28;21094;-50
2021/01/17 04:11:17;;;;;;;0.20;0.10;;;;;;;-0.63;100.00;100261.13;5054732;28;20446;-50
2021/01/17 04:13:43;;;;;;;0.40;0.40;;;;;;;-0.52;100.00;100259.56;5054619;28;20450;-49
2021/01/17 04:16:09;;;;;;;0.20;0.10;;;;;;;-0.54;100.00;100255.19;5054395;28;20541;-50
2021/01/17 04:18:36;;;;;;;0.20;0.10;;;;;;;-0.70;100.00;100265.34;5050341;28;20452;-50
2021/01/17 04:21:02;;;;;;;0.20;0.10;;;;;;;-0.67;100.00;100265.44;5045328;28;20513;-50
2021/01/17 04:23:28;;;;;;;0.20;0.10;;;;;;;-0.54;100.00;100261.28;5055009;28;20447;-49
2021/01/17 04:25:54;;;;;;;0.30;0.30;;;;;;;-0.59;100.00;100257.69;5053108;28;20506;-50
2021/01/17 04:28:21;;;;;;;0.20;0.10;;;;;;;-0.56;100.00;100262.09;5052141;28;20454;-49
2021/01/17 04:30:47;;;;;;;0.20;0.10;;;;;;;-0.36;100.00;100266.78;5054552;28;20520;-50
2021/01/17 04:33:18;;;;;;;0.20;0.10;;;;;;;-0.53;100.00;100264.78;5054709;28;20450;-50
2021/01/17 04:35:44;;;;;;;0.20;0.10;;;;;;;-0.70;100.00;100267.97;5054803;28;20486;-49
2021/01/17 04:38:11;;;;;;;0.20;0.10;;;;;;;-0.67;100.00;100272.38;5054617;28;20451;-49
2021/01/17 04:40:37;;;;;;;0.20;0.10;;;;;;;-0.69;100.00;100267.09;5054684;28;20470;-49
2021/01/17 04:43:09;;;;;;;0.20;0.10;;;;;;;-0.67;100.00;100268.03;5054360;28;20497;-50
2021/01/17 04:45:36;;;;;;;0.20;0.10;;;;;;;-0.66;100.00;100261.97;5054553;28;20504;-49
2021/01/17 04:48:04;;;;;;;0.20;0.10;;;;;;;-0.66;100.00;100258.47;5054189;28;20482;-49
2021/01/17 04:50:32;;;;;;;0.20;0.10;;;;;;;-0.67;100.00;100264.56;5047915;28;20467;-50
2021/01/17 04:53:09;;;;;;;0.20;0.10;;;;;;;-0.67;100.00;100272.38;5054411;28;20450;-49
2021/01/17 04:55:36;;;;;;;0.20;0.10;;;;;;;-0.63;100.00;100274.19;5053880;28;20494;-50
2021/01/17 04:58:08;;;;;;;0.20;0.10;;;;;;;-0.48;100.00;100278.75;5054348;28;20458;-49
2021/01/17 05:00:39;;;;;;;0.20;0.10;;;;;;;-0.49;100.00;100280.50;5053963;28;20470;-49
2021/01/17 05:03:27;;;;;;;0.20;0.10;;;;;;;-0.47;100.00;100280.50;5054295;28;20442;-50
2021/01/17 05:06:11;;;;;;;0.20;0.10;;;;;;;-0.40;100.00;100285.00;5054146;28;20462;-49
2021/01/17 05:08:43;;;;;;;0.20;0.10;;;;;;;-0.34;100.00;100287.69;5053745;28;20469;-50
2021/01/17 05:11:40;;;;;;;0.20;0.10;;;;;;;-0.43;100.00;100284.91;5053932;28;20446;-50
2021/01/17 05:14:14;;;;;;;0.20;0.10;;;;;;;-0.57;100.00;100282.09;5054078;28;20446;-49
2021/01/17 05:16:43;;;;;;;0.20;0.10;;;;;;;-0.61;100.00;100281.16;5053792;28;20454;-50
2021/01/17 05:19:18;;;;;;;0.20;0.20;;;;;;;-0.48;100.00;100274.41;5043900;28;20563;-51
2021/01/17 05:21:55;;;;;;;0.20;0.10;;;;;;;-0.54;100.00;100278.69;5049990;28;20438;-49
2021/01/17 05:24:21;;;;;;;0.20;0.10;;;;;;;-0.46;100.00;100288.38;5054523;28;20438;-49
2021/01/17 05:26:58;;;;;;;9.27;7.20;;;;;;;-0.65;100.00;100288.94;5049119;28;20466;-49
2021/01/17 05:29:27;;;;;;;0.20;0.10;;;;;;;-0.62;100.00;100292.47;5054077;28;20466;-49
2021/01/17 05:31:58;;;;;;;0.20;0.10;;;;;;;-0.47;100.00;100278.78;5052980;28;20446;-49
2021/01/17 05:34:26;;;;;;;0.20;0.10;;;;;;;-0.62;100.00;100273.31;5052895;28;20494;-50
2021/01/17 05:37:12;;;;;;;0.20;0.10;;;;;;;-0.64;100.00;100275.91;5052664;28;20992;-49
2021/01/17 05:40:00;;;;;;;0.20;0.10;;;;;;;-0.66;100.00;100276.75;5052485;28;20471;-49
2021/01/17 05:42:39;;;;;;;0.20;0.10;;;;;;;-0.63;100.00;100282.88;5052633;28;20443;-49
2021/01/17 05:45:20;;;;;;;0.20;0.10;;;;;;;-0.69;100.00;100274.06;5029966;28;20462;-50
2021/01/17 05:47:58;;;;;;;0.20;0.10;;;;;;;-0.84;100.00;100272.06;5052381;28;20450;-49
2021/01/17 05:50:26;;;;;;;0.20;0.10;;;;;;;-0.85;100.00;100267.72;5045416;28;20466;-49
2021/01/17 05:52:55;;;;;;;0.20;0.10;;;;;;;-0.78;100.00;100273.94;5052331;28;20998;-49
2021/01/17 05:55:36;;;;;;;1.50;1.50;;;;;;;-0.70;100.00;100267.09;5055312;28;20509;-49
2021/01/17 05:58:23;;;;;;;0.20;0.10;;;;;;;-0.73;100.00;100260.09;5033365;28;20450;-49
2021/01/17 06:00:57;;;;;;;0.20;0.10;;;;;;;-0.76;100.00;100273.09;5057499;28;20446;-50
2021/01/17 06:03:32;;;;;;;0.20;0.10;;;;;;;-0.79;100.00;100266.97;5057445;28;20961;-50
2021/01/17 06:06:06;;;;;;;0.20;0.10;;;;;;;-0.78;100.00;100271.31;5027719;28;20545;-49
2021/01/17 06:08:34;;;;;;;0.20;0.10;;;;;;;-0.69;100.00;100261.00;5053181;28;20472;-49
2021/01/17 06:11:06;;;;;;;0.20;0.10;;;;;;;-0.72;100.00;100259.22;5053254;28;20454;-49
2021/01/17 06:13:36;;;;;;;0.20;0.10;;;;;;;-0.66;100.00;100261.09;5053167;28;20516;-50
2021/01/17 06:16:21;;;;;;;0.20;0.10;;;;;;;-0.62;100.00;100265.50;5053062;28;20487;-49
2021/01/17 06:18:54;;;;;;;0.20;0.10;;;;;;;-0.71;100.00;100263.59;5046549;28;20467;-49
2021/01/17 06:21:21;;;;;;;0.20;0.10;;;;;;;-0.57;100.00;100271.66;5045860;28;20520;-49
2021/01/17 06:24:15;;;;;;;0.20;0.10;;;;;;;-0.64;100.00;100281.13;5046895;28;20506;-50
2021/01/17 06:26:41;;;;;;;0.20;0.10;;;;;;;-0.60;100.00;100282.94;5042825;28;20462;-49
2021/01/17 06:29:10;;;;;;;0.20;0.10;;;;;;;-0.54;100.00;100283.91;5053139;28;20474;-50
2021/01/17 06:31:37;;;;;;;0.20;0.10;;;;;;;-0.37;100.00;100296.34;5053217;28;20512;-49
2021/01/17 06:34:15;;;;;;;0.60;0.60;;;;;;;-0.47;100.00;100289.22;5053081;28;20451;-49
2021/01/17 06:36:43;;;;;;;0.20;0.10;;;;;;;-0.52;100.00;100292.63;5053242;28;20446;-49
2021/01/17 06:39:23;;;;;;;0.20;0.10;;;;;;;-0.49;100.00;100298.75;5053016;28;20477;-49
2021/01/17 06:41:57;;;;;;;0.20;0.10;;;;;;;-0.43;100.00;100292.75;5029807;28;20450;-51
2021/01/17 06:44:33;;;;;;;0.20;0.20;;;;;;;-0.57;100.00;100294.25;5056976;28;20485;-49
2021/01/17 06:47:00;;;;;;;0.20;0.10;;;;;;;-0.60;100.00;100302.94;5056844;28;20446;-49
2021/01/17 06:49:28;;;;;;;0.20;0.10;;;;;;;-0.48;100.00;100303.13;5049481;28;20478;-49
2021/01/17 06:51:55;;;;;;;0.20;0.10;;;;;;;-0.54;100.00;100291.72;5047209;28;20959;-49
2021/01/17 06:54:30;;;;;;;0.20;0.10;;;;;;;-0.41;100.00;100297.16;5053506;28;20500;-50
2021/01/17 06:56:59;;;;;;;0.20;0.10;;;;;;;-0.19;100.00;100305.31;5056661;28;20458;-49
2021/01/17 06:59:40;;;;;;;0.20;0.10;;;;;;;-0.34;100.00;100309.44;5056234;28;20466;-49
2021/01/17 07:02:12;;;;;;;0.20;0.10;;;;;;;-0.40;100.00;100309.38;5056284;28;20446;-50
2021/01/17 07:04:54;;;;;;;0.20;0.10;;;;;;;-0.44;100.00;100315.38;5056102;28;20925;-49
2021/01/17 07:07:45;;;;;;;0.20;0.10;;;;;;;-0.26;100.00;100330.47;5056030;28;20482;-49
2021/01/17 07:10:12;;;;;;;0.20;0.10;;;;;;;-0.21;100.00;100333.16;5056310;28;20478;-50
2021/01/17 07:13:10;;;;;;;0.20;0.10;;;;;;;-0.30;100.00;100332.13;5056197;28;20871;-50
2021/01/17 07:15:38;;;;;;;0.20;0.10;;;;;;;-0.14;100.00;100333.25;5055634;28;20547;-50
2021/01/17 07:18:07;;;;;;;0.20;0.10;;;;;;;0.24;100.00;100336.41;5055745;28;20504;-49
2021/01/17 07:20:52;;;;;;;0.23;0.10;;;;;;;0.28;100.00;100338.25;5062493;22;20556;-50
2021/01/17 07:23:19;;;;;;;0.20;0.20;;;;;;;0.24;100.00;100328.56;5064177;28;20445;-49
2021/01/17 07:25:47;;;;;;;0.20;0.10;;;;;;;-0.02;100.00;100316.88;5063285;28;20829;-51
2021/01/17 07:28:18;;;;;;;0.20;0.10;;;;;;;-0.01;100.00;100324.72;5068167;28;21571;-50
2021/01/17 07:30:48;;;;;;;0.73;0.73;;;;;;;0.29;100.00;100336.50;5054745;28;20467;-50
2021/01/17 07:33:25;;;;;;;0.20;0.10;;;;;;;-0.11;100.00;100330.69;5038332;28;20459;-51
2021/01/17 07:35:56;;;;;;;0.20;0.10;;;;;;;-0.28;100.00;100340.00;5048967;28;21006;-50
2021/01/17 07:38:26;;;;;;;0.20;0.10;;;;;;;-0.25;100.00;100332.22;5054778;28;20450;-50
2021/01/17 07:40:55;;;;;;;0.20;0.10;;;;;;;-0.41;100.00;100344.16;5054784;28;20991;-50
2021/01/17 07:43:32;;;;;;;0.20;0.10;;;;;;;-0.37;100.00;100352.91;5027884;28;20928;-50
2021/01/17 07:46:05;;;;;;;0.20;0.10;;;;;;;-0.48;100.00;100347.50;5054482;28;20469;-50
2021/01/17 07:48:31;;;;;;;0.20;0.10;;;;;;;-0.35;100.00;100351.19;5051406;28;20447;-50
2021/01/17 07:51:00;;;;;;;0.20;0.10;;;;;;;-0.45;100.00;100351.91;5050165;28;20470;-50
2021/01/17 07:53:44;;;;;;;0.20;0.10;;;;;;;-0.45;100.00;100357.13;5054494;28;20458;-51
2021/01/17 07:56:14;;;;;;;1.53;1.43;;;;;;;-0.41;100.00;100356.31;5054294;28;20852;-51
2021/01/17 07:58:49;;;;;;;0.20;0.10;;;;;;;-0.28;100.00;100365.22;5054306;28;20447;-50
2021/01/17 08:01:42;;;;;;;0.20;0.10;;;;;;;-0.19;100.00;100374.09;5028300;28;20442;-50
2021/01/17 08:04:13;;;;;;;0.20;0.10;;;;;;;-0.22;100.00;100376.66;5049829;28;20962;-49
2021/01/17 08:06:42;;;;;;;0.20;0.10;;;;;;;-0.23;100.00;100380.13;5054088;28;20443;-50
2021/01/17 08:09:10;;;;;;;0.20;0.10;;;;;;;-0.14;100.00;100379.38;5053856;28;20479;-51
2021/01/17 08:11:41;;;;;;;0.20;0.10;;;;;;;-0.14;100.00;100387.22;5053811;28;20458;-51
2021/01/17 08:14:25;;;;;;;0.20;0.10;;;;;;;-0.12;100.00;100390.75;5053878;28;20451;-51
2021/01/17 08:17:09;;;;;;;0.20;0.10;;;;;;;-0.09;100.00;100388.19;5053790;28;20454;-50
2021/01/17 08:19:44;;;;;;;0.20;0.10;;;;;;;-0.09;100.00;100388.19;5041959;28;20550;-51
2021/01/17 08:22:16;;;;;;;0.20;0.10;;;;;;;-0.14;100.00;100393.31;5053415;28;20934;-51
2021/01/17 08:24:47;;;;;;;0.20;0.10;;;;;;;-0.04;100.00;100391.75;5053739;28;20454;-51
2021/01/17 08:27:32;;;;;;;0.20;0.10;;;;;;;0.20;100.00;100394.72;5049324;28;20461;-50
2021/01/17 08:30:01;;;;;;;0.20;0.10;;;;;;;0.09;100.00;100398.03;5053474;28;20479;-50
2021/01/17 08:32:37;;;;;;;0.20;0.10;;;;;;;0.24;100.00;100393.91;5053509;28;20451;-50
2021/01/17 08:35:18;;;;;;;0.20;0.10;;;;;;;0.23;100.00;100396.50;5053375;28;20908;-50
2021/01/17 08:37:45;;;;;;;0.20;0.10;;;;;;;0.26;100.00;100392.19;5053504;28;20473;-50
2021/01/17 08:40:16;;;;;;;0.20;0.10;;;;;;;0.11;100.00;100391.97;5053783;28;21036;-50
2021/01/17 08:42:50;;;;;;;0.20;0.10;;;;;;;0.13;100.00;100399.84;5053192;28;20446;-50
2021/01/17 08:45:22;;;;;;;0.20;0.10;;;;;;;0.16;100.00;100400.78;5053624;28;20447;-51
2021/01/17 08:47:52;;;;;;;0.20;0.10;;;;;;;-0.01;100.00;100404.84;5053203;28;20952;-50
2021/01/17 08:50:29;;;;;;;0.20;0.10;;;;;;;0.09;100.00;100409.38;5046049;28;20559;-50
2021/01/17 08:53:23;;;;;;;0.20;0.10;;;;;;;0.14;100.00;100412.94;5053046;28;20943;-49
2021/01/17 08:55:51;;;;;;;0.20;0.10;;;;;;;0.13;100.00;100416.38;5047853;28;20890;-50
2021/01/17 08:58:26;;;;;;;0.20;0.10;;;;;;;0.22;100.00;100415.66;5053182;28;20455;-50
2021/01/17 09:00:53;;;;;;;0.20;0.10;;;;;;;0.25;100.00;100418.31;5052830;28;20470;-50
2021/01/17 09:03:28;;;;;;;0.20;0.10;;;;;;;0.31;100.00;100426.25;5052691;28;20798;-50
2021/01/17 09:06:20;;;;;;;0.20;0.10;;;;;;;0.32;100.00;100433.25;5052745;28;20989;-50
2021/01/17 09:08:49;;;;;;;0.30;0.10;;;;;;;0.34;100.00;100422.81;5052908;28;20443;-51
2021/01/17 09:11:24;;;;;;;0.20;0.10;;;;;;;0.33;100.00;100432.38;5052950;28;20505;-50
2021/01/17 09:14:12;;;;;;;0.20;0.10;;;;;;;0.37;100.00;100435.91;5052667;28;20450;-51
2021/01/17 09:16:42;;;;;;;0.20;0.10;;;;;;;0.41;100.00;100433.41;5052535;28;20490;-50
2021/01/17 09:19:09;;;;;;;0.20;0.10;;;;;;;0.47;100.00;100433.47;5021419;28;20488;-50
2021/01/17 09:21:36;;;;;;;0.20;0.10;;;;;;;0.68;100.00;100438.09;5047688;28;20447;-50
2021/01/17 09:24:15;;;;;;;0.20;0.10;;;;;;;0.56;100.00;100440.59;5053136;28;20451;-50
2021/01/17 09:26:45;;;;;;;0.20;0.10;;;;;;;0.58;100.00;100442.34;5046408;28;20504;-51
2021/01/17 09:29:30;;;;;;;0.20;0.10;;;;;;;0.70;100.00;100451.22;5052594;28;20592;-51
2021/01/17 09:32:05;;;;;;;0.20;0.10;;;;;;;0.65;100.00;100451.16;5052456;28;20446;-51
2021/01/17 09:34:35;;;;;;;0.20;0.20;;;;;;;0.61;100.00;100445.88;5052395;28;20521;-50
2021/01/17 09:37:06;;;;;;;0.20;0.10;;;;;;;0.85;100.00;100446.19;5052377;28;21001;-50
2021/01/17 09:39:36;;;;;;;0.30;0.27;;;;;;;1.19;100.00;100450.97;5052264;28;20494;-51
2021/01/17 09:42:05;;;;;;;0.20;0.10;;;;;;;0.95;100.00;100455.91;5052531;28;20454;-50
2021/01/17 09:44:32;;;;;;;0.20;0.10;;;;;;;0.92;100.00;100463.72;5052273;28;20940;-50
2021/01/17 09:46:59;;;;;;;0.20;0.10;;;;;;;0.93;100.00;100460.25;5052506;28;20442;-50
2021/01/17 09:49:29;;;;;;;0.20;0.10;;;;;;;0.90;100.00;100465.44;5044640;28;20470;-51
2021/01/17 09:51:55;;;;;;;0.20;0.10;;;;;;;0.93;100.00;100462.84;5052572;28;20846;-51
2021/01/17 09:54:22;;;;;;;1.07;1.07;;;;;;;1.01;100.00;100468.22;5052327;28;20528;-50
2021/01/17 09:56:52;;;;;;;0.30;0.20;;;;;;;1.26;100.00;100472.88;5052286;28;20526;-50
2021/01/17 09:59:22;;;;;;;0.20;0.10;;;;;;;1.09;100.00;100477.00;5052173;28;20478;-51
2021/01/17 10:01:50;;;;;;;0.30;0.10;;;;;;;1.00;100.00;100471.69;5052211;28;20457;-53
2021/01/17 10:04:27;;;;;;;0.20;0.10;;;;;;;0.94;100.00;100476.81;5052102;28;20569;-49
2021/01/17 10:06:57;;;;;;;0.20;0.10;;;;;;;0.91;100.00;100475.06;5052344;28;20932;-49
2021/01/17 10:09:27;;;;;;;0.20;0.10;;;;;;;1.31;100.00;100473.81;5052909;28;20893;-51
2021/01/17 10:12:01;;;;;;;0.20;0.10;;;;;;;1.28;100.00;100479.03;5051953;28;20490;-50
2021/01/17 10:14:30;;;;;;;1.13;1.13;;;;;;;1.27;100.00;100477.25;5051927;28;20926;-48
2021/01/17 10:16:58;;;;;;;0.20;0.10;;;;;;;1.17;100.00;100480.63;5055008;28;20944;-48
2021/01/17 10:19:32;;;;;;;0.53;0.53;;;;;;;0.90;100.00;100483.75;5045578;28;20486;-48
2021/01/17 10:22:00;;;;;;;0.30;0.20;;;;;;;1.08;100.00;100485.72;5054205;28;20907;-49
2021/01/17 10:24:30;;;;;;;0.77;0.77;;;;;;;1.05;100.00;100491.81;5056095;28;20446;-49
2021/01/17 10:27:01;;;;;;;0.20;0.10;;;;;;;1.02;100.00;100493.50;5051300;28;20455;-48
2021/01/17 10:29:29;;;;;;;0.20;0.10;;;;;;;1.17;100.00;100486.72;5056127;28;20528;-49
2021/01/17 10:31:58;;;;;;;0.20;0.10;;;;;;;1.14;100.00;100488.44;5055978;28;20504;-48
2021/01/17 10:34:28;;;;;;;0.20;0.10;;;;;;;1.10;100.00;100492.78;5055889;28;20443;-48
2021/01/17 10:36:56;;;;;;;0.20;0.10;;;;;;;1.06;100.00;100496.19;5029868;28;20991;-48
2021/01/17 10:39:23;;;;;;;0.20;0.10;;;;;;;1.23;100.00;100491.16;5055476;28;20467;-51
2021/01/17 10:41:51;;;;;;;0.20;0.10;;;;;;;1.17;100.00;100498.94;5056136;28;20451;-50
2021/01/17 10:44:25;;;;;;;0.20;0.10;;;;;;;1.51;100.00;100505.50;5055662;28;20446;-50
2021/01/17 10:47:00;;;;;;;0.20;0.10;;;;;;;1.33;100.00;100502.63;5055974;28;20465;-51
2021/01/17 10:49:33;;;;;;;1.23;1.23;;;;;;;1.43;100.00;100499.25;5048622;28;20474;-50
2021/01/17 10:52:09;;;;;;;0.20;0.10;;;;;;;1.72;100.00;100496.97;5055637;28;20447;-50
2021/01/17 10:54:40;;;;;;;0.20;0.10;;;;;;;1.76;100.00;100488.25;5055380;28;20447;-50
2021/01/17 10:57:07;;;;;;;0.20;0.10;;;;;;;1.68;100.00;100495.19;5055409;28;20449;-51
2021/01/17 10:59:35;;;;;;;0.20;0.17;;;;;;;1.46;100.00;100496.69;5055361;28;20470;-50
2021/01/17 11:02:01;;;;;;;0.20;0.10;;;;;;;1.48;100.00;100489.72;5055313;28;20869;-50
2021/01/17 11:04:37;;;;;;;0.20;0.10;;;;;;;1.83;100.00;100487.47;5055489;28;20467;-50
2021/01/17 11:07:04;;;;;;;0.20;0.10;;;;;;;1.61;100.00;100488.09;5055413;28;20919;-50
2021/01/17 11:09:30;;;;;;;0.20;0.10;;;;;;;1.80;100.00;100487.47;5055300;28;20475;-50
2021/01/17 11:11:56;;;;;;;1.60;1.50;;;;;;;1.65;100.00;100490.81;5055269;28;20503;-50
2021/01/17 11:14:31;;;;;;;0.20;0.10;;;;;;;1.60;100.00;100495.09;5055145;28;20454;-51
2021/01/17 11:17:01;;;;;;;0.20;0.10;;;;;;;1.47;100.00;100486.22;5054970;28;20512;-51
2021/01/17 11:19:37;;;;;;;0.20;0.10;;;;;;;1.57;100.00;100492.44;5043828;28;21010;-50
2021/01/17 11:22:06;;;;;;;0.20;0.10;;;;;;;1.58;100.00;100490.69;5053862;28;20488;-50
2021/01/17 11:24:39;;;;;;;0.20;0.17;;;;;;;1.66;100.00;100497.78;5055103;28;20477;-50
2021/01/17 11:27:07;;;;;;;0.20;0.10;;;;;;;1.64;100.00;100498.63;5032934;28;20543;-50
2021/01/17 11:29:34;;;;;;;0.20;0.10;;;;;;;1.78;100.00;100490.06;5054601;28;20470;-50
2021/01/17 11:32:00;;;;;;;0.30;0.10;;;;;;;1.64;100.00;100496.88;5055212;28;20508;-50
2021/01/17 11:34:32;;;;;;;0.20;0.10;;;;;;;1.95;100.00;100495.47;5054805;28;20482;-51
2021/01/17 11:36:59;;;;;;;0.20;0.10;;;;;;;1.84;100.00;100486.59;5054915;28;20490;-50